Terminal Aerodrome Forecast
Issued by NWS

Home | Current Version | Previous Version | Text Only | Print | Product List | Glossary On
Versions: 1 2 3 4 5 6 7 8 9 10 11 12 13 14 15 16 17
000
FTUS44 KSJT 031900 AAA
TAFBBD
TAF AMD
KBBD 031933Z 0320/0418 15010G16KT P6SM SKC
     FM040000 14008KT P6SM SKC
     FM040900 VRB06KT P6SM OVC015=

USA.gov is the U.S. government's official web portal to all federal, state and local government web resources and services.